sensor_id;sensor_type;location;lat;lon;timestamp;P1;durP1;ratioP1;P2;durP2;ratioP2
11524;SDS011;5819;49.648;8.330;2023-06-14T00:02:04;6.03;;;5.00;;
11524;SDS011;5819;49.648;8.330;2023-06-14T00:04:35;8.02;;;5.53;;
11524;SDS011;5819;49.648;8.330;2023-06-14T00:07:04;6.63;;;5.72;;
11524;SDS011;5819;49.648;8.330;2023-06-14T00:09:35;6.68;;;5.43;;
11524;SDS011;5819;49.648;8.330;2023-06-14T00:12:03;6.22;;;5.43;;
11524;SDS011;5819;49.648;8.330;2023-06-14T00:14:32;8.25;;;5.47;;
11524;SDS011;5819;49.648;8.330;2023-06-14T00:17:00;6.70;;;5.32;;
11524;SDS011;5819;49.648;8.330;2023-06-14T00:19:29;6.90;;;5.38;;
11524;SDS011;5819;49.648;8.330;2023-06-14T00:21:59;5.78;;;5.20;;
11524;SDS011;5819;49.648;8.330;2023-06-14T00:24:28;6.93;;;5.47;;
11524;SDS011;5819;49.648;8.330;2023-06-14T00:26:57;6.68;;;5.72;;
11524;SDS011;5819;49.648;8.330;2023-06-14T00:29:27;8.65;;;5.50;;
11524;SDS011;5819;49.648;8.330;2023-06-14T00:31:55;7.53;;;5.60;;
11524;SDS011;5819;49.648;8.330;2023-06-14T00:34:25;8.10;;;6.10;;
11524;SDS011;5819;49.648;8.330;2023-06-14T00:36:53;6.53;;;5.30;;
11524;SDS011;5819;49.648;8.330;2023-06-14T00:39:21;10.57;;;5.40;;
11524;SDS011;5819;49.648;8.330;2023-06-14T00:41:49;6.63;;;5.90;;
11524;SDS011;5819;49.648;8.330;2023-06-14T00:44:20;10.93;;;6.13;;
11524;SDS011;5819;49.648;8.330;2023-06-14T00:46:49;6.53;;;5.93;;
11524;SDS011;5819;49.648;8.330;2023-06-14T00:49:18;12.85;;;6.38;;
11524;SDS011;5819;49.648;8.330;2023-06-14T00:51:47;7.65;;;5.50;;
11524;SDS011;5819;49.648;8.330;2023-06-14T00:54:15;9.05;;;6.32;;
11524;SDS011;5819;49.648;8.330;2023-06-14T00:56:44;9.32;;;5.78;;
11524;SDS011;5819;49.648;8.330;2023-06-14T00:59:12;7.57;;;5.88;;
11524;SDS011;5819;49.648;8.330;2023-06-14T01:01:44;7.18;;;5.88;;
11524;SDS011;5819;49.648;8.330;2023-06-14T01:04:12;7.55;;;6.13;;
11524;SDS011;5819;49.648;8.330;2023-06-14T01:06:42;8.32;;;6.20;;
11524;SDS011;5819;49.648;8.330;2023-06-14T01:09:22;6.97;;;6.00;;
11524;SDS011;5819;49.648;8.330;2023-06-14T01:12:00;8.30;;;5.82;;
11524;SDS011;5819;49.648;8.330;2023-06-14T01:14:35;8.02;;;6.32;;
11524;SDS011;5819;49.648;8.330;2023-06-14T01:17:06;8.50;;;6.07;;
11524;SDS011;5819;49.648;8.330;2023-06-14T01:19:41;8.40;;;6.60;;
11524;SDS011;5819;49.648;8.330;2023-06-14T01:22:13;8.32;;;6.45;;
11524;SDS011;5819;49.648;8.330;2023-06-14T01:24:43;12.38;;;6.38;;
11524;SDS011;5819;49.648;8.330;2023-06-14T01:27:11;7.90;;;5.75;;
11524;SDS011;5819;49.648;8.330;2023-06-14T01:29:45;9.32;;;6.05;;
11524;SDS011;5819;49.648;8.330;2023-06-14T01:32:14;7.20;;;6.57;;
11524;SDS011;5819;49.648;8.330;2023-06-14T01:34:44;13.77;;;6.13;;
11524;SDS011;5819;49.648;8.330;2023-06-14T01:37:13;8.52;;;6.00;;
11524;SDS011;5819;49.648;8.330;2023-06-14T01:39:43;12.27;;;6.03;;
11524;SDS011;5819;49.648;8.330;2023-06-14T01:42:12;7.90;;;6.20;;
11524;SDS011;5819;49.648;8.330;2023-06-14T01:44:40;8.05;;;6.22;;
11524;SDS011;5819;49.648;8.330;2023-06-14T01:47:10;6.70;;;6.00;;
11524;SDS011;5819;49.648;8.330;2023-06-14T01:49:40;8.18;;;5.90;;
11524;SDS011;5819;49.648;8.330;2023-06-14T01:52:08;11.00;;;6.63;;
11524;SDS011;5819;49.648;8.330;2023-06-14T01:54:36;6.90;;;6.13;;
11524;SDS011;5819;49.648;8.330;2023-06-14T01:57:09;7.18;;;6.13;;
11524;SDS011;5819;49.648;8.330;2023-06-14T01:59:37;11.30;;;6.07;;
11524;SDS011;5819;49.648;8.330;2023-06-14T02:02:05;7.15;;;6.47;;
11524;SDS011;5819;49.648;8.330;2023-06-14T02:04:34;9.13;;;6.03;;
11524;SDS011;5819;49.648;8.330;2023-06-14T02:07:01;10.73;;;6.65;;
11524;SDS011;5819;49.648;8.330;2023-06-14T02:09:30;7.40;;;6.00;;
11524;SDS011;5819;49.648;8.330;2023-06-14T02:11:58;8.15;;;6.15;;
11524;SDS011;5819;49.648;8.330;2023-06-14T02:14:27;8.32;;;6.28;;
11524;SDS011;5819;49.648;8.330;2023-06-14T02:16:55;8.48;;;6.05;;
11524;SDS011;5819;49.648;8.330;2023-06-14T02:19:23;10.15;;;6.13;;
11524;SDS011;5819;49.648;8.330;2023-06-14T02:21:51;9.43;;;6.25;;
11524;SDS011;5819;49.648;8.330;2023-06-14T02:24:20;6.43;;;5.82;;
11524;SDS011;5819;49.648;8.330;2023-06-14T02:26:50;7.97;;;5.97;;
11524;SDS011;5819;49.648;8.330;2023-06-14T02:29:18;8.00;;;6.03;;
11524;SDS011;5819;49.648;8.330;2023-06-14T02:31:47;11.27;;;6.53;;
11524;SDS011;5819;49.648;8.330;2023-06-14T02:34:19;7.68;;;6.10;;
11524;SDS011;5819;49.648;8.330;2023-06-14T02:36:48;8.93;;;6.32;;
11524;SDS011;5819;49.648;8.330;2023-06-14T02:39:16;7.60;;;6.47;;
11524;SDS011;5819;49.648;8.330;2023-06-14T02:41:47;9.05;;;6.35;;
11524;SDS011;5819;49.648;8.330;2023-06-14T02:44:14;7.38;;;6.30;;
11524;SDS011;5819;49.648;8.330;2023-06-14T02:46:45;6.72;;;5.70;;
11524;SDS011;5819;49.648;8.330;2023-06-14T02:49:14;7.93;;;6.00;;
11524;SDS011;5819;49.648;8.330;2023-06-14T02:51:42;7.78;;;6.00;;
11524;SDS011;5819;49.648;8.330;2023-06-14T02:54:10;8.93;;;6.13;;
11524;SDS011;5819;49.648;8.330;2023-06-14T02:56:38;8.93;;;5.70;;
11524;SDS011;5819;49.648;8.330;2023-06-14T02:59:08;7.18;;;6.18;;
11524;SDS011;5819;49.648;8.330;2023-06-14T03:01:38;9.15;;;6.22;;
11524;SDS011;5819;49.648;8.330;2023-06-14T03:04:10;9.90;;;5.97;;
11524;SDS011;5819;49.648;8.330;2023-06-14T03:06:42;12.40;;;6.00;;
11524;SDS011;5819;49.648;8.330;2023-06-14T03:09:19;6.00;;;5.28;;
11524;SDS011;5819;49.648;8.330;2023-06-14T03:11:47;11.15;;;5.95;;
11524;SDS011;5819;49.648;8.330;2023-06-14T03:14:15;7.88;;;5.70;;
11524;SDS011;5819;49.648;8.330;2023-06-14T03:16:45;6.88;;;5.88;;
11524;SDS011;5819;49.648;8.330;2023-06-14T03:19:13;7.75;;;5.63;;
11524;SDS011;5819;49.648;8.330;2023-06-14T03:21:43;8.25;;;6.22;;
11524;SDS011;5819;49.648;8.330;2023-06-14T03:24:12;7.40;;;5.82;;
11524;SDS011;5819;49.648;8.330;2023-06-14T03:26:40;6.63;;;5.47;;
11524;SDS011;5819;49.648;8.330;2023-06-14T03:29:08;8.15;;;5.85;;
11524;SDS011;5819;49.648;8.330;2023-06-14T03:31:41;9.48;;;6.10;;
11524;SDS011;5819;49.648;8.330;2023-06-14T03:34:32;6.25;;;5.53;;
11524;SDS011;5819;49.648;8.330;2023-06-14T03:37:02;6.90;;;5.65;;
11524;SDS011;5819;49.648;8.330;2023-06-14T03:39:30;6.30;;;5.70;;
11524;SDS011;5819;49.648;8.330;2023-06-14T03:41:58;6.75;;;5.70;;
11524;SDS011;5819;49.648;8.330;2023-06-14T03:44:26;7.65;;;6.10;;
11524;SDS011;5819;49.648;8.330;2023-06-14T03:46:54;7.07;;;5.95;;
11524;SDS011;5819;49.648;8.330;2023-06-14T03:49:24;7.32;;;5.60;;
11524;SDS011;5819;49.648;8.330;2023-06-14T03:51:53;10.20;;;6.05;;
11524;SDS011;5819;49.648;8.330;2023-06-14T03:54:24;7.80;;;5.47;;
11524;SDS011;5819;49.648;8.330;2023-06-14T03:57:14;9.95;;;5.47;;
11524;SDS011;5819;49.648;8.330;2023-06-14T03:59:43;9.15;;;5.75;;
11524;SDS011;5819;49.648;8.330;2023-06-14T04:02:11;8.98;;;5.43;;
11524;SDS011;5819;49.648;8.330;2023-06-14T04:04:42;6.60;;;5.53;;
11524;SDS011;5819;49.648;8.330;2023-06-14T04:07:11;6.70;;;5.70;;
11524;SDS011;5819;49.648;8.330;2023-06-14T04:09:42;8.48;;;5.63;;
11524;SDS011;5819;49.648;8.330;2023-06-14T04:12:10;8.10;;;5.30;;
11524;SDS011;5819;49.648;8.330;2023-06-14T04:14:38;6.38;;;5.68;;
11524;SDS011;5819;49.648;8.330;2023-06-14T04:17:09;5.45;;;4.90;;
11524;SDS011;5819;49.648;8.330;2023-06-14T04:19:38;9.32;;;5.57;;
11524;SDS011;5819;49.648;8.330;2023-06-14T04:22:06;8.05;;;5.50;;
11524;SDS011;5819;49.648;8.330;2023-06-14T04:24:37;8.77;;;5.70;;
11524;SDS011;5819;49.648;8.330;2023-06-14T04:27:07;7.03;;;5.28;;
11524;SDS011;5819;49.648;8.330;2023-06-14T04:29:36;5.80;;;5.20;;
11524;SDS011;5819;49.648;8.330;2023-06-14T04:32:10;6.80;;;5.45;;
11524;SDS011;5819;49.648;8.330;2023-06-14T04:34:40;6.15;;;5.18;;
11524;SDS011;5819;49.648;8.330;2023-06-14T04:37:09;6.35;;;4.85;;
11524;SDS011;5819;49.648;8.330;2023-06-14T04:39:41;6.75;;;5.45;;
11524;SDS011;5819;49.648;8.330;2023-06-14T04:42:11;7.00;;;4.88;;
11524;SDS011;5819;49.648;8.330;2023-06-14T04:44:41;6.60;;;5.15;;
11524;SDS011;5819;49.648;8.330;2023-06-14T04:47:10;7.40;;;5.38;;
11524;SDS011;5819;49.648;8.330;2023-06-14T04:49:38;6.82;;;4.95;;
11524;SDS011;5819;49.648;8.330;2023-06-14T04:52:08;6.80;;;5.28;;
11524;SDS011;5819;49.648;8.330;2023-06-14T04:58:54;10.60;;;5.28;;
11524;SDS011;5819;49.648;8.330;2023-06-14T05:01:22;10.02;;;5.88;;
11524;SDS011;5819;49.648;8.330;2023-06-14T05:03:51;7.63;;;5.00;;
11524;SDS011;5819;49.648;8.330;2023-06-14T05:06:20;8.45;;;4.63;;
11524;SDS011;5819;49.648;8.330;2023-06-14T05:08:48;5.82;;;4.93;;
11524;SDS011;5819;49.648;8.330;2023-06-14T05:11:17;6.00;;;5.25;;
11524;SDS011;5819;49.648;8.330;2023-06-14T05:13:45;9.32;;;5.05;;
11524;SDS011;5819;49.648;8.330;2023-06-14T05:16:14;6.35;;;4.85;;
11524;SDS011;5819;49.648;8.330;2023-06-14T05:18:46;7.75;;;4.90;;
11524;SDS011;5819;49.648;8.330;2023-06-14T05:21:14;7.15;;;5.18;;
11524;SDS011;5819;49.648;8.330;2023-06-14T05:23:44;7.97;;;5.22;;
11524;SDS011;5819;49.648;8.330;2023-06-14T05:26:12;8.57;;;5.65;;
11524;SDS011;5819;49.648;8.330;2023-06-14T05:28:41;7.88;;;5.13;;
11524;SDS011;5819;49.648;8.330;2023-06-14T05:31:09;5.95;;;5.35;;
11524;SDS011;5819;49.648;8.330;2023-06-14T05:35:10;11.80;;;5.03;;
11524;SDS011;5819;49.648;8.330;2023-06-14T05:38:22;7.38;;;4.78;;
11524;SDS011;5819;49.648;8.330;2023-06-14T05:40:53;7.68;;;5.00;;
11524;SDS011;5819;49.648;8.330;2023-06-14T05:43:21;9.95;;;5.20;;
11524;SDS011;5819;49.648;8.330;2023-06-14T05:45:49;6.50;;;5.03;;
11524;SDS011;5819;49.648;8.330;2023-06-14T05:48:17;7.57;;;4.97;;
11524;SDS011;5819;49.648;8.330;2023-06-14T05:50:47;6.38;;;4.65;;
11524;SDS011;5819;49.648;8.330;2023-06-14T05:53:15;10.10;;;5.47;;
11524;SDS011;5819;49.648;8.330;2023-06-14T05:55:43;9.70;;;4.95;;
11524;SDS011;5819;49.648;8.330;2023-06-14T05:58:11;11.73;;;5.53;;
11524;SDS011;5819;49.648;8.330;2023-06-14T06:00:39;7.18;;;4.72;;
11524;SDS011;5819;49.648;8.330;2023-06-14T06:03:07;11.10;;;5.55;;
11524;SDS011;5819;49.648;8.330;2023-06-14T06:05:36;9.30;;;5.00;;
11524;SDS011;5819;49.648;8.330;2023-06-14T06:08:05;8.30;;;5.30;;
11524;SDS011;5819;49.648;8.330;2023-06-14T06:10:33;10.25;;;5.22;;
11524;SDS011;5819;49.648;8.330;2023-06-14T06:13:01;6.55;;;4.75;;
11524;SDS011;5819;49.648;8.330;2023-06-14T06:15:31;7.30;;;5.60;;
11524;SDS011;5819;49.648;8.330;2023-06-14T06:18:03;5.63;;;5.07;;
11524;SDS011;5819;49.648;8.330;2023-06-14T06:20:34;7.95;;;5.10;;
11524;SDS011;5819;49.648;8.330;2023-06-14T06:23:05;10.70;;;4.85;;
11524;SDS011;5819;49.648;8.330;2023-06-14T06:25:34;10.05;;;5.00;;
11524;SDS011;5819;49.648;8.330;2023-06-14T06:28:02;8.80;;;5.40;;
11524;SDS011;5819;49.648;8.330;2023-06-14T06:30:29;9.57;;;5.10;;
11524;SDS011;5819;49.648;8.330;2023-06-14T06:32:57;11.60;;;5.35;;
11524;SDS011;5819;49.648;8.330;2023-06-14T06:35:25;11.98;;;5.80;;
11524;SDS011;5819;49.648;8.330;2023-06-14T06:37:54;7.82;;;5.28;;
11524;SDS011;5819;49.648;8.330;2023-06-14T06:40:23;11.00;;;4.93;;
11524;SDS011;5819;49.648;8.330;2023-06-14T06:42:51;19.38;;;5.40;;
11524;SDS011;5819;49.648;8.330;2023-06-14T06:45:20;12.10;;;5.05;;
11524;SDS011;5819;49.648;8.330;2023-06-14T06:47:51;8.73;;;5.20;;
11524;SDS011;5819;49.648;8.330;2023-06-14T06:50:19;9.43;;;4.88;;
11524;SDS011;5819;49.648;8.330;2023-06-14T06:52:49;6.40;;;5.00;;
11524;SDS011;5819;49.648;8.330;2023-06-14T06:55:18;9.20;;;5.25;;
11524;SDS011;5819;49.648;8.330;2023-06-14T06:57:48;7.20;;;4.93;;
11524;SDS011;5819;49.648;8.330;2023-06-14T07:00:19;9.93;;;5.03;;
11524;SDS011;5819;49.648;8.330;2023-06-14T07:02:47;7.90;;;5.00;;
11524;SDS011;5819;49.648;8.330;2023-06-14T07:05:15;7.82;;;4.88;;
11524;SDS011;5819;49.648;8.330;2023-06-14T07:07:44;6.57;;;4.57;;
11524;SDS011;5819;49.648;8.330;2023-06-14T07:10:12;10.38;;;5.13;;
11524;SDS011;5819;49.648;8.330;2023-06-14T07:12:40;6.78;;;4.45;;
11524;SDS011;5819;49.648;8.330;2023-06-14T07:15:10;15.77;;;4.88;;
11524;SDS011;5819;49.648;8.330;2023-06-14T07:17:39;9.32;;;5.30;;
11524;SDS011;5819;49.648;8.330;2023-06-14T07:20:09;5.78;;;4.35;;
11524;SDS011;5819;49.648;8.330;2023-06-14T07:22:39;5.45;;;4.60;;
11524;SDS011;5819;49.648;8.330;2023-06-14T07:25:08;8.35;;;4.60;;
11524;SDS011;5819;49.648;8.330;2023-06-14T07:27:39;16.80;;;4.75;;
11524;SDS011;5819;49.648;8.330;2023-06-14T07:30:08;8.20;;;4.57;;
11524;SDS011;5819;49.648;8.330;2023-06-14T07:32:38;7.22;;;4.70;;
11524;SDS011;5819;49.648;8.330;2023-06-14T07:35:07;9.25;;;4.50;;
11524;SDS011;5819;49.648;8.330;2023-06-14T07:37:35;6.57;;;4.07;;
11524;SDS011;5819;49.648;8.330;2023-06-14T07:40:03;9.43;;;4.53;;
11524;SDS011;5819;49.648;8.330;2023-06-14T07:42:33;9.38;;;4.65;;
11524;SDS011;5819;49.648;8.330;2023-06-14T07:45:02;7.28;;;4.30;;
11524;SDS011;5819;49.648;8.330;2023-06-14T07:47:32;7.35;;;4.38;;
11524;SDS011;5819;49.648;8.330;2023-06-14T07:50:01;5.70;;;4.25;;
11524;SDS011;5819;49.648;8.330;2023-06-14T07:52:29;7.72;;;4.70;;
11524;SDS011;5819;49.648;8.330;2023-06-14T07:54:57;7.13;;;4.78;;
11524;SDS011;5819;49.648;8.330;2023-06-14T07:57:25;5.90;;;4.80;;
11524;SDS011;5819;49.648;8.330;2023-06-14T07:59:53;6.05;;;4.40;;
11524;SDS011;5819;49.648;8.330;2023-06-14T08:02:21;12.05;;;5.07;;
11524;SDS011;5819;49.648;8.330;2023-06-14T08:04:50;5.05;;;4.10;;
11524;SDS011;5819;49.648;8.330;2023-06-14T08:07:19;9.07;;;4.32;;
11524;SDS011;5819;49.648;8.330;2023-06-14T08:09:46;6.05;;;4.78;;
11524;SDS011;5819;49.648;8.330;2023-06-14T08:12:14;6.55;;;4.40;;
11524;SDS011;5819;49.648;8.330;2023-06-14T08:14:42;7.00;;;4.45;;
11524;SDS011;5819;49.648;8.330;2023-06-14T08:17:10;7.55;;;4.70;;
11524;SDS011;5819;49.648;8.330;2023-06-14T08:19:38;7.13;;;4.30;;
11524;SDS011;5819;49.648;8.330;2023-06-14T08:22:07;5.70;;;4.20;;
11524;SDS011;5819;49.648;8.330;2023-06-14T08:24:38;8.50;;;4.68;;
11524;SDS011;5819;49.648;8.330;2023-06-14T08:27:07;6.60;;;4.07;;
11524;SDS011;5819;49.648;8.330;2023-06-14T08:29:35;6.72;;;4.57;;
11524;SDS011;5819;49.648;8.330;2023-06-14T08:32:05;6.43;;;3.92;;
11524;SDS011;5819;49.648;8.330;2023-06-14T08:34:33;6.85;;;4.15;;
11524;SDS011;5819;49.648;8.330;2023-06-14T08:37:01;4.82;;;3.75;;
11524;SDS011;5819;49.648;8.330;2023-06-14T08:39:31;8.07;;;4.20;;
11524;SDS011;5819;49.648;8.330;2023-06-14T08:41:59;8.18;;;4.25;;
11524;SDS011;5819;49.648;8.330;2023-06-14T08:44:29;3.75;;;3.30;;
11524;SDS011;5819;49.648;8.330;2023-06-14T08:46:57;7.50;;;3.80;;
11524;SDS011;5819;49.648;8.330;2023-06-14T08:49:27;4.55;;;3.70;;
11524;SDS011;5819;49.648;8.330;2023-06-14T08:51:56;5.22;;;3.80;;
11524;SDS011;5819;49.648;8.330;2023-06-14T08:54:27;4.75;;;3.85;;
11524;SDS011;5819;49.648;8.330;2023-06-14T08:56:58;4.63;;;3.63;;
11524;SDS011;5819;49.648;8.330;2023-06-14T08:59:27;6.60;;;4.15;;
11524;SDS011;5819;49.648;8.330;2023-06-14T09:01:57;6.07;;;3.40;;
11524;SDS011;5819;49.648;8.330;2023-06-14T09:04:38;4.50;;;3.08;;
11524;SDS011;5819;49.648;8.330;2023-06-14T09:07:06;5.82;;;3.75;;
11524;SDS011;5819;49.648;8.330;2023-06-14T09:09:38;4.10;;;3.15;;
11524;SDS011;5819;49.648;8.330;2023-06-14T09:12:19;9.93;;;3.30;;
11524;SDS011;5819;49.648;8.330;2023-06-14T09:14:47;5.68;;;3.38;;
11524;SDS011;5819;49.648;8.330;2023-06-14T09:17:15;5.95;;;3.15;;
11524;SDS011;5819;49.648;8.330;2023-06-14T09:19:43;6.20;;;3.15;;
11524;SDS011;5819;49.648;8.330;2023-06-14T09:22:12;6.47;;;3.10;;
11524;SDS011;5819;49.648;8.330;2023-06-14T09:24:41;4.90;;;3.00;;
11524;SDS011;5819;49.648;8.330;2023-06-14T09:27:13;3.30;;;2.75;;
11524;SDS011;5819;49.648;8.330;2023-06-14T09:29:44;5.18;;;2.47;;
11524;SDS011;5819;49.648;8.330;2023-06-14T09:32:12;4.88;;;2.67;;
11524;SDS011;5819;49.648;8.330;2023-06-14T09:34:40;6.32;;;3.03;;
11524;SDS011;5819;49.648;8.330;2023-06-14T09:37:08;5.28;;;2.83;;
11524;SDS011;5819;49.648;8.330;2023-06-14T09:39:43;6.03;;;2.97;;
11524;SDS011;5819;49.648;8.330;2023-06-14T09:42:17;6.03;;;2.72;;
11524;SDS011;5819;49.648;8.330;2023-06-14T09:44:48;4.82;;;2.80;;
11524;SDS011;5819;49.648;8.330;2023-06-14T09:47:16;4.35;;;2.60;;
11524;SDS011;5819;49.648;8.330;2023-06-14T09:49:44;4.45;;;2.47;;
11524;SDS011;5819;49.648;8.330;2023-06-14T09:52:14;4.15;;;2.50;;
11524;SDS011;5819;49.648;8.330;2023-06-14T09:54:43;4.72;;;2.90;;
11524;SDS011;5819;49.648;8.330;2023-06-14T09:57:13;4.45;;;2.67;;
11524;SDS011;5819;49.648;8.330;2023-06-14T09:59:43;5.70;;;2.63;;
11524;SDS011;5819;49.648;8.330;2023-06-14T10:02:18;4.38;;;2.40;;
11524;SDS011;5819;49.648;8.330;2023-06-14T10:04:54;5.80;;;2.50;;
11524;SDS011;5819;49.648;8.330;2023-06-14T10:07:27;4.35;;;2.40;;
11524;SDS011;5819;49.648;8.330;2023-06-14T10:09:59;6.07;;;2.40;;
11524;SDS011;5819;49.648;8.330;2023-06-14T10:12:27;5.45;;;3.40;;
11524;SDS011;5819;49.648;8.330;2023-06-14T10:14:55;4.38;;;2.70;;
11524;SDS011;5819;49.648;8.330;2023-06-14T10:17:27;4.78;;;2.92;;
11524;SDS011;5819;49.648;8.330;2023-06-14T10:20:10;3.05;;;2.40;;
11524;SDS011;5819;49.648;8.330;2023-06-14T10:22:47;3.95;;;2.53;;
11524;SDS011;5819;49.648;8.330;2023-06-14T10:25:27;7.63;;;2.55;;
11524;SDS011;5819;49.648;8.330;2023-06-14T10:28:02;3.42;;;2.35;;
11524;SDS011;5819;49.648;8.330;2023-06-14T10:30:33;4.28;;;2.53;;
11524;SDS011;5819;49.648;8.330;2023-06-14T10:33:06;3.22;;;2.55;;
11524;SDS011;5819;49.648;8.330;2023-06-14T10:35:36;2.95;;;2.65;;
11524;SDS011;5819;49.648;8.330;2023-06-14T10:38:07;2.53;;;2.13;;
11524;SDS011;5819;49.648;8.330;2023-06-14T10:40:36;4.78;;;2.35;;
11524;SDS011;5819;49.648;8.330;2023-06-14T10:43:20;2.78;;;2.30;;
11524;SDS011;5819;49.648;8.330;2023-06-14T10:48:43;2.15;;;2.05;;
11524;SDS011;5819;49.648;8.330;2023-06-14T10:51:15;4.20;;;2.30;;
11524;SDS011;5819;49.648;8.330;2023-06-14T10:53:47;5.28;;;2.20;;
11524;SDS011;5819;49.648;8.330;2023-06-14T10:56:28;3.13;;;2.25;;
11524;SDS011;5819;49.648;8.330;2023-06-14T10:58:57;5.95;;;2.20;;
11524;SDS011;5819;49.648;8.330;2023-06-14T11:01:31;2.28;;;2.05;;
11524;SDS011;5819;49.648;8.330;2023-06-14T11:04:08;2.97;;;1.88;;
11524;SDS011;5819;49.648;8.330;2023-06-14T11:06:47;4.03;;;2.63;;
11524;SDS011;5819;49.648;8.330;2023-06-14T11:12:15;2.63;;;2.17;;
11524;SDS011;5819;49.648;8.330;2023-06-14T11:14:45;4.05;;;1.98;;
11524;SDS011;5819;49.648;8.330;2023-06-14T11:17:14;2.03;;;1.83;;
11524;SDS011;5819;49.648;8.330;2023-06-14T11:19:43;2.92;;;1.70;;
11524;SDS011;5819;49.648;8.330;2023-06-14T11:22:11;3.10;;;2.15;;
11524;SDS011;5819;49.648;8.330;2023-06-14T11:24:42;3.08;;;2.03;;
11524;SDS011;5819;49.648;8.330;2023-06-14T11:27:10;1.88;;;1.67;;
11524;SDS011;5819;49.648;8.330;2023-06-14T11:29:42;3.25;;;2.05;;
11524;SDS011;5819;49.648;8.330;2023-06-14T11:32:15;4.13;;;2.10;;
11524;SDS011;5819;49.648;8.330;2023-06-14T11:34:46;5.65;;;2.50;;
11524;SDS011;5819;49.648;8.330;2023-06-14T11:37:14;2.30;;;2.08;;
11524;SDS011;5819;49.648;8.330;2023-06-14T11:39:43;3.97;;;2.10;;
11524;SDS011;5819;49.648;8.330;2023-06-14T11:42:13;2.20;;;2.00;;
11524;SDS011;5819;49.648;8.330;2023-06-14T11:44:41;5.88;;;2.60;;
11524;SDS011;5819;49.648;8.330;2023-06-14T11:47:09;6.03;;;2.45;;
11524;SDS011;5819;49.648;8.330;2023-06-14T11:49:37;2.97;;;1.95;;
11524;SDS011;5819;49.648;8.330;2023-06-14T11:52:06;4.13;;;2.15;;
11524;SDS011;5819;49.648;8.330;2023-06-14T11:54:35;5.20;;;2.22;;
11524;SDS011;5819;49.648;8.330;2023-06-14T11:57:03;2.70;;;2.30;;
11524;SDS011;5819;49.648;8.330;2023-06-14T11:59:32;5.38;;;2.33;;
11524;SDS011;5819;49.648;8.330;2023-06-14T12:01:59;3.20;;;2.10;;
11524;SDS011;5819;49.648;8.330;2023-06-14T12:04:27;7.72;;;2.63;;
11524;SDS011;5819;49.648;8.330;2023-06-14T12:06:55;4.18;;;2.50;;
11524;SDS011;5819;49.648;8.330;2023-06-14T12:09:25;3.78;;;2.65;;
11524;SDS011;5819;49.648;8.330;2023-06-14T12:11:59;4.65;;;2.47;;
11524;SDS011;5819;49.648;8.330;2023-06-14T12:14:28;4.05;;;2.30;;
11524;SDS011;5819;49.648;8.330;2023-06-14T12:17:03;3.95;;;2.30;;
11524;SDS011;5819;49.648;8.330;2023-06-14T12:19:33;2.67;;;2.45;;
11524;SDS011;5819;49.648;8.330;2023-06-14T12:22:09;2.38;;;2.10;;
11524;SDS011;5819;49.648;8.330;2023-06-14T12:24:38;5.13;;;2.53;;
11524;SDS011;5819;49.648;8.330;2023-06-14T12:27:06;2.78;;;2.58;;
11524;SDS011;5819;49.648;8.330;2023-06-14T12:29:34;3.63;;;2.20;;
11524;SDS011;5819;49.648;8.330;2023-06-14T12:32:02;6.03;;;2.95;;
11524;SDS011;5819;49.648;8.330;2023-06-14T12:34:30;5.05;;;2.72;;
11524;SDS011;5819;49.648;8.330;2023-06-14T12:36:58;3.42;;;2.53;;
11524;SDS011;5819;49.648;8.330;2023-06-14T12:39:26;6.60;;;2.63;;
11524;SDS011;5819;49.648;8.330;2023-06-14T12:41:56;2.90;;;2.47;;
11524;SDS011;5819;49.648;8.330;2023-06-14T12:44:24;3.97;;;2.58;;
11524;SDS011;5819;49.648;8.330;2023-06-14T12:46:52;7.75;;;2.45;;
11524;SDS011;5819;49.648;8.330;2023-06-14T12:49:21;4.07;;;2.53;;
11524;SDS011;5819;49.648;8.330;2023-06-14T12:51:49;5.32;;;3.00;;
11524;SDS011;5819;49.648;8.330;2023-06-14T12:54:17;3.38;;;2.42;;
11524;SDS011;5819;49.648;8.330;2023-06-14T12:57:06;2.85;;;2.65;;
11524;SDS011;5819;49.648;8.330;2023-06-14T12:59:34;5.55;;;2.90;;
11524;SDS011;5819;49.648;8.330;2023-06-14T13:02:15;3.30;;;2.92;;
11524;SDS011;5819;49.648;8.330;2023-06-14T13:04:44;6.63;;;2.85;;
11524;SDS011;5819;49.648;8.330;2023-06-14T13:07:12;5.80;;;2.85;;
11524;SDS011;5819;49.648;8.330;2023-06-14T13:09:41;4.60;;;3.00;;
11524;SDS011;5819;49.648;8.330;2023-06-14T13:12:11;4.40;;;2.58;;
11524;SDS011;5819;49.648;8.330;2023-06-14T13:14:40;4.25;;;2.85;;
11524;SDS011;5819;49.648;8.330;2023-06-14T13:17:08;3.10;;;2.90;;
11524;SDS011;5819;49.648;8.330;2023-06-14T13:19:37;3.13;;;2.60;;
11524;SDS011;5819;49.648;8.330;2023-06-14T13:22:05;5.35;;;2.42;;
11524;SDS011;5819;49.648;8.330;2023-06-14T13:24:34;4.15;;;2.85;;
11524;SDS011;5819;49.648;8.330;2023-06-14T13:27:02;6.63;;;2.95;;
11524;SDS011;5819;49.648;8.330;2023-06-14T13:29:32;7.53;;;3.17;;
11524;SDS011;5819;49.648;8.330;2023-06-14T13:32:02;2.92;;;2.72;;
11524;SDS011;5819;49.648;8.330;2023-06-14T13:34:30;2.70;;;2.50;;
11524;SDS011;5819;49.648;8.330;2023-06-14T13:36:58;4.43;;;3.13;;
11524;SDS011;5819;49.648;8.330;2023-06-14T13:39:26;5.10;;;3.10;;
11524;SDS011;5819;49.648;8.330;2023-06-14T13:41:54;6.47;;;3.20;;
11524;SDS011;5819;49.648;8.330;2023-06-14T13:44:21;3.70;;;3.03;;
11524;SDS011;5819;49.648;8.330;2023-06-14T13:47:10;4.38;;;3.17;;
11524;SDS011;5819;49.648;8.330;2023-06-14T13:49:55;3.38;;;2.88;;
11524;SDS011;5819;49.648;8.330;2023-06-14T13:52:41;3.25;;;2.95;;
11524;SDS011;5819;49.648;8.330;2023-06-14T13:55:09;5.25;;;2.83;;
11524;SDS011;5819;49.648;8.330;2023-06-14T13:57:37;7.25;;;2.70;;
11524;SDS011;5819;49.648;8.330;2023-06-14T14:00:05;3.95;;;2.80;;
11524;SDS011;5819;49.648;8.330;2023-06-14T14:02:39;6.85;;;3.00;;
11524;SDS011;5819;49.648;8.330;2023-06-14T14:05:08;4.07;;;3.22;;
11524;SDS011;5819;49.648;8.330;2023-06-14T14:07:36;6.68;;;2.85;;
11524;SDS011;5819;49.648;8.330;2023-06-14T14:10:21;7.10;;;3.42;;
11524;SDS011;5819;49.648;8.330;2023-06-14T14:12:49;7.00;;;2.70;;
11524;SDS011;5819;49.648;8.330;2023-06-14T14:15:35;7.30;;;2.70;;
11524;SDS011;5819;49.648;8.330;2023-06-14T14:18:05;4.80;;;2.88;;
11524;SDS011;5819;49.648;8.330;2023-06-14T14:20:33;2.80;;;2.60;;
11524;SDS011;5819;49.648;8.330;2023-06-14T14:23:02;3.20;;;2.80;;
11524;SDS011;5819;49.648;8.330;2023-06-14T14:25:48;6.95;;;2.90;;
11524;SDS011;5819;49.648;8.330;2023-06-14T14:28:16;3.88;;;2.78;;
11524;SDS011;5819;49.648;8.330;2023-06-14T14:30:53;4.70;;;2.90;;
11524;SDS011;5819;49.648;8.330;2023-06-14T14:33:22;3.03;;;2.80;;
11524;SDS011;5819;49.648;8.330;2023-06-14T14:35:50;5.13;;;2.80;;
11524;SDS011;5819;49.648;8.330;2023-06-14T14:38:18;8.40;;;2.78;;
11524;SDS011;5819;49.648;8.330;2023-06-14T14:40:46;5.88;;;3.00;;
11524;SDS011;5819;49.648;8.330;2023-06-14T14:43:14;4.25;;;2.88;;
11524;SDS011;5819;49.648;8.330;2023-06-14T14:45:41;4.70;;;3.05;;
11524;SDS011;5819;49.648;8.330;2023-06-14T14:48:09;5.47;;;3.38;;
11524;SDS011;5819;49.648;8.330;2023-06-14T14:50:39;2.92;;;2.45;;
11524;SDS011;5819;49.648;8.330;2023-06-14T14:53:07;3.45;;;2.83;;
11524;SDS011;5819;49.648;8.330;2023-06-14T14:55:34;4.82;;;2.63;;
11524;SDS011;5819;49.648;8.330;2023-06-14T14:58:04;3.75;;;2.78;;
11524;SDS011;5819;49.648;8.330;2023-06-14T15:00:33;3.60;;;3.10;;
11524;SDS011;5819;49.648;8.330;2023-06-14T15:03:01;3.63;;;2.80;;
11524;SDS011;5819;49.648;8.330;2023-06-14T15:05:29;7.63;;;3.17;;
11524;SDS011;5819;49.648;8.330;2023-06-14T15:07:58;5.38;;;2.88;;
11524;SDS011;5819;49.648;8.330;2023-06-14T15:10:27;7.85;;;3.03;;
11524;SDS011;5819;49.648;8.330;2023-06-14T15:12:55;4.45;;;2.88;;
11524;SDS011;5819;49.648;8.330;2023-06-14T15:15:22;3.60;;;2.75;;
11524;SDS011;5819;49.648;8.330;2023-06-14T15:17:50;3.47;;;2.70;;
11524;SDS011;5819;49.648;8.330;2023-06-14T15:20:19;3.13;;;2.60;;
11524;SDS011;5819;49.648;8.330;2023-06-14T15:22:47;4.07;;;3.17;;
11524;SDS011;5819;49.648;8.330;2023-06-14T15:25:17;3.65;;;2.83;;
11524;SDS011;5819;49.648;8.330;2023-06-14T15:27:47;5.18;;;3.42;;
11524;SDS011;5819;49.648;8.330;2023-06-14T15:30:15;5.95;;;3.08;;